This is the latest recevied weather packets stored in our database for station/object JI8TEY-15. If no packets are shown the sender has not sent any weather packets the latest 10 day(s).
| Time | Temp. | Humidity | Pressure | Rain* | Wind** | Luminosity | Snow |
|---|---|---|---|---|---|---|---|
| 1788423047 | 20.56° C | 82% | 1004 hPa | 0 mm | - | - | - |
| 1788419447 | 21.67° C | 76% | 1005 hPa | 0 mm | - | - | - |
| 1788415847 | 23.33° C | 69% | 1005 hPa | 0 mm | - | - | - |
| 1788412246 | 23.89° C | 68% | 1006 hPa | 0 mm | - | - | - |
| 1788408647 | 24.44° C | 67% | 1006 hPa | 0 mm | - | - | - |
| 1788405047 | 24.44° C | 66% | 1006 hPa | 0 mm | - | - | - |
| 1788401446 | 24.44° C | 66% | 1006 hPa | 0 mm | - | - | - |
| 1788376247 | 18.89° C | 84% | 1008 hPa | 0 mm | - | - | - |
| 1788372647 | 18.89° C | 83% | 1008 hPa | 0 mm | - | - | - |
| 1788369048 | 18.89° C | 84% | 1008 hPa | 0 mm | - | - | - |
| 1788365446 | 18.33° C | 83% | 1009 hPa | 0 mm | - | - | - |
| 1788358247 | 18.33° C | 84% | 1010 hPa | 0 mm | - | - | - |
| 1788354647 | 18.33° C | 83% | 1010 hPa | 0 mm | - | - | - |
| 1788351047 | 18.33° C | 82% | 1011 hPa | 0 mm | - | - | - |
| 1788347446 | 18.33° C | 83% | 1012 hPa | 0 mm | - | - | - |
| 1788343848 | 18.33° C | 82% | 1011 hPa | 0 mm | - | - | - |
| 1788340246 | 18.33° C | 81% | 1011 hPa | 0 mm | - | - | - |
| 1788336646 | 19.44° C | 76% | 1011 hPa | 0 mm | - | - | - |
| 1788333047 | 20° C | 78% | 1012 hPa | 0 mm | - | - | - |
| 1788329448 | 20° C | 74% | 1011 hPa | 0 mm | - | - | - |
| 1788325847 | 20.56° C | 76% | 1012 hPa | 0 mm | - | - | - |
| 1788322247 | 21.11° C | 73% | 1011 hPa | 0 mm | - | - | - |
| 1788300648 | 17.78° C | 91% | 1013 hPa | 0 mm | - | - | - |
| 1788297047 | 16.67° C | 90% | 1014 hPa | 0 mm | - | - | - |
| 1788282647 | 16.11° C | 85% | 1015 hPa | 0 mm | - | - | - |
* Rain latest hour (hover to see other rain measurements)
** Current wind speed in m/s (hover to see current wind gust speed)